Time;durP1;ratioP1;P1;durP2;ratioP2;P2;SDS_P1;SDS_P2;PMS_P1;PMS_P2;Temp;Humidity;BMP_temperature;BMP_pressure;BME280_temperature;BME280_humidity;BME280_pressure;Samples;Min_cycle;Max_cycle;Signal;HPM_P1;HPM_P2
2022/08/01 00:01:30;;;;;;;4.15;3.30;;;;;;;;;;5053676;28;20029;-77
2022/08/01 00:03:56;;;;;;;3.88;3.60;;;;;;;;;;5055065;28;20040;-77
2022/08/01 00:06:21;;;;;;;5.57;3.47;;;;;;;;;;5054952;28;20024;-77
2022/08/01 00:08:47;;;;;;;4.00;3.45;;;;;;;;;;5053508;28;20087;-77
2022/08/01 00:11:12;;;;;;;3.67;3.38;;;;;;;;;;5053759;28;20079;-77
2022/08/01 00:13:37;;;;;;;4.22;3.60;;;;;;;;;;5055092;28;20079;-77
2022/08/01 00:16:03;;;;;;;3.47;3.22;;;;;;;;;;5054556;28;20104;-77
2022/08/01 00:18:28;;;;;;;6.75;3.45;;;;;;;;;;5054719;28;20043;-77
2022/08/01 00:20:54;;;;;;;3.75;3.55;;;;;;;;;;5036614;28;20112;-77
2022/08/01 00:23:19;;;;;;;3.15;2.92;;;;;;;;;;5053117;28;20025;-77
2022/08/01 00:25:44;;;;;;;3.63;3.33;;;;;;;;;;5054553;28;20017;-77
2022/08/01 00:28:10;;;;;;;3.75;3.47;;;;;;;;;;5054269;28;20444;-77
2022/08/01 00:30:35;;;;;;;5.43;4.45;;;;;;;;;;5053984;28;20020;-77
2022/08/01 00:33:02;;;;;;;6.70;6.13;;;;;;;;;;5054547;28;20025;-77
2022/08/01 00:35:27;;;;;;;7.75;6.60;;;;;;;;;;5054174;28;20408;-76
2022/08/01 00:37:53;;;;;;;7.00;6.40;;;;;;;;;;5054141;28;20048;-76
2022/08/01 00:40:18;;;;;;;6.32;5.63;;;;;;;;;;5054379;28;20074;-76
2022/08/01 00:42:44;;;;;;;6.72;4.60;;;;;;;;;;5054026;28;20467;-76
2022/08/01 00:45:10;;;;;;;4.95;4.40;;;;;;;;;;5054250;28;20020;-76
2022/08/01 00:47:35;;;;;;;5.15;4.65;;;;;;;;;;5054446;28;20025;-75
2022/08/01 00:50:03;;;;;;;5.35;4.57;;;;;;;;;;5054496;28;20024;-75
2022/08/01 00:52:28;;;;;;;5.15;4.60;;;;;;;;;;5053575;28;20124;-75
2022/08/01 00:54:54;;;;;;;5.65;5.20;;;;;;;;;;5054107;28;20146;-75
2022/08/01 00:57:19;;;;;;;4.40;4.03;;;;;;;;;;5054121;28;20025;-75
2022/08/01 00:59:45;;;;;;;4.55;4.20;;;;;;;;;;5054353;28;20021;-76
2022/08/01 01:02:10;;;;;;;4.13;3.83;;;;;;;;;;5053725;28;20033;-76
2022/08/01 01:04:35;;;;;;;5.25;4.85;;;;;;;;;;5053688;28;20021;-76
2022/08/01 01:07:24;;;;;;;5.32;4.93;;;;;;;;;;5053678;28;20056;-76
2022/08/01 01:09:49;;;;;;;6.55;5.95;;;;;;;;;;5052495;28;20519;-76
2022/08/01 01:12:27;;;;;;;6.72;6.13;;;;;;;;;;5053644;28;20009;-76
2022/08/01 01:15:15;;;;;;;7.15;6.65;;;;;;;;;;5053841;28;20060;-76
2022/08/01 01:17:58;;;;;;;5.97;5.47;;;;;;;;;;5053589;28;20103;-76
2022/08/01 01:20:43;;;;;;;7.03;5.30;;;;;;;;;;5052277;28;20048;-76
2022/08/01 01:23:18;;;;;;;7.47;6.47;;;;;;;;;;5035038;28;20037;-76
2022/08/01 01:25:51;;;;;;;7.53;6.85;;;;;;;;;;5052514;28;20037;-76
2022/08/01 01:28:55;;;;;;;7.78;7.05;;;;;;;;;;5035600;28;20033;-76
2022/08/01 01:31:21;;;;;;;7.68;6.40;;;;;;;;;;4972956;28;20034;-76
2022/08/01 01:33:48;;;;;;;7.25;6.50;;;;;;;;;;4972995;28;20027;-76
2022/08/01 01:36:14;;;;;;;5.90;5.40;;;;;;;;;;5011024;28;20117;-76
2022/08/01 01:38:41;;;;;;;8.93;6.20;;;;;;;;;;5053394;28;20021;-76
2022/08/01 01:41:08;;;;;;;6.95;6.25;;;;;;;;;;5054305;28;20100;-76
2022/08/01 01:43:34;;;;;;;6.97;6.00;;;;;;;;;;5056714;28;20044;-76
2022/08/01 01:46:02;;;;;;;7.05;6.32;;;;;;;;;;5057542;28;20111;-76
2022/08/01 01:48:28;;;;;;;7.38;5.72;;;;;;;;;;5056459;28;20017;-77
2022/08/01 01:50:54;;;;;;;5.80;5.30;;;;;;;;;;5055881;28;20033;-76
2022/08/01 01:53:21;;;;;;;7.05;6.32;;;;;;;;;;5056051;28;20381;-76
2022/08/01 01:55:48;;;;;;;5.60;5.00;;;;;;;;;;5057227;28;20037;-76
2022/08/01 01:58:14;;;;;;;7.18;6.57;;;;;;;;;;5057178;28;20017;-76
2022/08/01 02:00:39;;;;;;;6.53;5.93;;;;;;;;;;5039325;28;20366;-76
2022/08/01 02:03:06;;;;;;;7.38;6.68;;;;;;;;;;5057082;28;20128;-76
2022/08/01 02:05:34;;;;;;;8.20;6.90;;;;;;;;;;5057189;28;20090;-76
2022/08/01 02:08:00;;;;;;;7.68;6.97;;;;;;;;;;5055828;28;20032;-76
2022/08/01 02:10:26;;;;;;;7.20;6.35;;;;;;;;;;5057184;28;20021;-76
2022/08/01 02:12:52;;;;;;;7.40;6.10;;;;;;;;;;5057453;28;20420;-76
2022/08/01 02:15:19;;;;;;;8.50;6.50;;;;;;;;;;5057111;28;20121;-76
2022/08/01 02:17:46;;;;;;;8.30;6.53;;;;;;;;;;5056798;28;20033;-76
2022/08/01 02:20:13;;;;;;;6.32;5.75;;;;;;;;;;5056751;28;20029;-76
2022/08/01 02:22:42;;;;;;;6.65;6.07;;;;;;;;;;5057257;28;20024;-75
2022/08/01 02:25:17;;;;;;;7.00;6.37;;;;;;;;;;5055292;28;20025;-75
2022/08/01 02:27:45;;;;;;;8.05;6.07;;;;;;;;;;5056635;28;20090;-76
2022/08/01 02:30:13;;;;;;;7.35;6.70;;;;;;;;;;5056589;28;20096;-76
2022/08/01 02:33:01;;;;;;;7.60;6.85;;;;;;;;;;5056524;28;20481;-77
2022/08/01 02:35:28;;;;;;;8.13;7.32;;;;;;;;;;5056462;28;20529;-77
2022/08/01 02:37:54;;;;;;;7.75;7.05;;;;;;;;;;5056707;28;20041;-77
2022/08/01 02:40:20;;;;;;;7.75;7.15;;;;;;;;;;5056441;28;20092;-77
2022/08/01 02:42:49;;;;;;;8.98;8.07;;;;;;;;;;5056589;28;20025;-77
2022/08/01 02:45:17;;;;;;;8.95;7.47;;;;;;;;;;5055304;28;20051;-77
2022/08/01 02:47:43;;;;;;;7.90;7.20;;;;;;;;;;5038419;28;20017;-77
2022/08/01 02:50:11;;;;;;;7.72;7.00;;;;;;;;;;5056221;28;20033;-77
2022/08/01 02:52:36;;;;;;;7.70;6.93;;;;;;;;;;5054679;28;20045;-77
2022/08/01 02:55:02;;;;;;;7.32;5.85;;;;;;;;;;5054883;28;20036;-77
2022/08/01 02:57:28;;;;;;;6.95;5.70;;;;;;;;;;5056654;28;20349;-77
2022/08/01 02:59:55;;;;;;;6.85;6.20;;;;;;;;;;5056047;28;20040;-77
2022/08/01 03:02:22;;;;;;;8.18;7.47;;;;;;;;;;5056277;28;20017;-77
2022/08/01 03:04:48;;;;;;;7.97;7.22;;;;;;;;;;5056081;28;20461;-76
2022/08/01 03:07:15;;;;;;;10.23;7.80;;;;;;;;;;5055888;28;20017;-76
2022/08/01 03:09:42;;;;;;;9.30;8.15;;;;;;;;;;5054954;28;20507;-76
2022/08/01 03:12:14;;;;;;;9.18;7.43;;;;;;;;;;5055805;28;20045;-76
2022/08/01 03:14:40;;;;;;;10.38;7.85;;;;;;;;;;5054580;28;20104;-76
2022/08/01 03:17:06;;;;;;;8.30;7.45;;;;;;;;;;5054804;28;20024;-76
2022/08/01 03:19:33;;;;;;;8.10;7.38;;;;;;;;;;5055888;28;20115;-77
2022/08/01 03:21:59;;;;;;;7.65;7.05;;;;;;;;;;5055902;28;20025;-76
2022/08/01 03:24:25;;;;;;;8.35;7.53;;;;;;;;;;5055787;28;20037;-77
2022/08/01 03:26:52;;;;;;;8.23;7.40;;;;;;;;;;5056031;28;20025;-77
2022/08/01 03:29:19;;;;;;;9.15;7.95;;;;;;;;;;5055456;28;20028;-76
2022/08/01 03:31:45;;;;;;;10.82;7.88;;;;;;;;;;5055711;28;20017;-76
2022/08/01 03:34:11;;;;;;;8.45;7.57;;;;;;;;;;5054484;28;20387;-76
2022/08/01 03:36:46;;;;;;;8.07;6.85;;;;;;;;;;5055327;28;20021;-76
2022/08/01 03:39:12;;;;;;;9.32;6.50;;;;;;;;;;5055523;28;20104;-76
2022/08/01 03:41:39;;;;;;;7.35;6.70;;;;;;;;;;5054056;28;20017;-77
2022/08/01 03:44:07;;;;;;;9.98;7.32;;;;;;;;;;5055190;28;20040;-77
2022/08/01 03:46:35;;;;;;;9.20;8.25;;;;;;;;;;5055345;28;20032;-77
2022/08/01 03:49:05;;;;;;;10.02;6.93;;;;;;;;;;5053973;28;20380;-77
2022/08/01 03:51:31;;;;;;;8.13;7.22;;;;;;;;;;5054140;28;20041;-77
2022/08/01 03:53:58;;;;;;;8.65;5.97;;;;;;;;;;5053125;28;20051;-77
2022/08/01 03:56:24;;;;;;;6.80;6.18;;;;;;;;;;5053991;28;20029;-77
2022/08/01 03:58:50;;;;;;;6.72;6.10;;;;;;;;;;5053842;28;20033;-76
2022/08/01 04:01:16;;;;;;;7.88;6.13;;;;;;;;;;5053809;28;20471;-76
2022/08/01 04:03:47;;;;;;;9.25;7.60;;;;;;;;;;5053136;28;20069;-76
2022/08/01 04:06:13;;;;;;;9.80;7.90;;;;;;;;;;5053675;28;20097;-77
2022/08/01 04:08:39;;;;;;;12.50;8.45;;;;;;;;;;5052469;28;20025;-77
2022/08/01 04:11:05;;;;;;;7.90;7.03;;;;;;;;;;5053666;28;20032;-77
2022/08/01 04:13:31;;;;;;;7.55;6.35;;;;;;;;;;5053552;28;20039;-77
2022/08/01 04:15:56;;;;;;;7.80;7.00;;;;;;;;;;5036423;28;20025;-78
2022/08/01 04:18:23;;;;;;;8.93;6.50;;;;;;;;;;5036810;28;20476;-76
2022/08/01 04:20:48;;;;;;;7.25;6.55;;;;;;;;;;5054880;28;20017;-76
2022/08/01 04:23:24;;;;;;;9.35;8.27;;;;;;;;;;5054437;28;20389;-76
2022/08/01 04:25:50;;;;;;;7.75;7.05;;;;;;;;;;5054120;28;20029;-76
2022/08/01 04:28:19;;;;;;;8.32;7.63;;;;;;;;;;5054739;28;20066;-76
2022/08/01 04:30:46;;;;;;;8.07;7.28;;;;;;;;;;5053453;28;20040;-76
2022/08/01 04:33:13;;;;;;;10.10;7.18;;;;;;;;;;5054273;28;20506;-76
2022/08/01 04:35:41;;;;;;;8.57;7.68;;;;;;;;;;5051990;28;20043;-76
2022/08/01 04:38:07;;;;;;;9.18;8.02;;;;;;;;;;5052123;28;20417;-76
2022/08/01 04:40:35;;;;;;;8.75;7.85;;;;;;;;;;5052496;28;20025;-76
2022/08/01 04:43:00;;;;;;;8.07;7.32;;;;;;;;;;5051608;28;20455;-76
2022/08/01 04:45:26;;;;;;;10.88;7.45;;;;;;;;;;5051758;28;20108;-76
2022/08/01 04:47:52;;;;;;;7.35;6.80;;;;;;;;;;5051692;28;20044;-76
2022/08/01 04:50:20;;;;;;;8.50;7.32;;;;;;;;;;5051825;28;20028;-76
2022/08/01 04:52:47;;;;;;;7.75;6.97;;;;;;;;;;5053011;28;20380;-76
2022/08/01 04:55:12;;;;;;;8.50;7.68;;;;;;;;;;5053843;28;20039;-76
2022/08/01 04:57:40;;;;;;;8.98;8.15;;;;;;;;;;5053827;28;20097;-76
2022/08/01 05:00:06;;;;;;;9.68;8.68;;;;;;;;;;5053763;28;20029;-76
2022/08/01 05:02:31;;;;;;;10.82;9.73;;;;;;;;;;5054023;28;20021;-76
2022/08/01 05:04:57;;;;;;;12.52;10.45;;;;;;;;;;5052369;28;20033;-76
2022/08/01 05:07:22;;;;;;;13.65;10.57;;;;;;;;;;5052399;28;20091;-76
2022/08/01 05:09:48;;;;;;;13.88;10.57;;;;;;;;;;5052511;28;20037;-76
2022/08/01 05:12:13;;;;;;;21.73;14.43;;;;;;;;;;5053934;28;20021;-76
2022/08/01 05:14:39;;;;;;;26.55;17.40;;;;;;;;;;5054061;28;20503;-76
2022/08/01 05:17:06;;;;;;;25.23;17.58;;;;;;;;;;5052745;28;20532;-76
2022/08/01 05:19:32;;;;;;;28.60;18.85;;;;;;;;;;5053543;28;20028;-76
2022/08/01 05:21:58;;;;;;;33.05;19.60;;;;;;;;;;5053828;28;20021;-76
2022/08/01 05:24:24;;;;;;;34.83;20.55;;;;;;;;;;5052611;28;20036;-76
2022/08/01 05:26:49;;;;;;;31.50;19.98;;;;;;;;;;5053405;28;20024;-76
2022/08/01 05:29:15;;;;;;;32.95;20.02;;;;;;;;;;5052832;28;20029;-76
2022/08/01 05:31:40;;;;;;;35.15;21.42;;;;;;;;;;5053438;28;20063;-76
2022/08/01 05:34:06;;;;;;;35.95;21.65;;;;;;;;;;5053365;28;20405;-76
2022/08/01 05:36:31;;;;;;;34.95;21.25;;;;;;;;;;5053410;28;20457;-76
2022/08/01 05:38:56;;;;;;;38.97;22.77;;;;;;;;;;5053325;28;20454;-76
2022/08/01 05:41:22;;;;;;;41.25;23.58;;;;;;;;;;5053618;28;20059;-76
2022/08/01 05:43:47;;;;;;;45.88;25.02;;;;;;;;;;5053249;28;20362;-76
2022/08/01 05:46:12;;;;;;;43.75;24.15;;;;;;;;;;5051959;28;20057;-76
2022/08/01 05:48:38;;;;;;;42.88;24.70;;;;;;;;;;5053214;28;20033;-76
2022/08/01 05:51:03;;;;;;;38.22;23.50;;;;;;;;;;5053393;28;20045;-76
2022/08/01 05:53:29;;;;;;;40.60;23.13;;;;;;;;;;5051947;28;20029;-76
2022/08/01 05:55:54;;;;;;;39.28;22.75;;;;;;;;;;5053198;28;20065;-76
2022/08/01 05:58:20;;;;;;;39.97;22.05;;;;;;;;;;5053166;28;20473;-76
2022/08/01 06:00:45;;;;;;;30.73;17.42;;;;;;;;;;5053410;28;20166;-76
2022/08/01 06:03:11;;;;;;;32.97;19.23;;;;;;;;;;5053111;28;20036;-76
2022/08/01 06:05:36;;;;;;;29.48;18.42;;;;;;;;;;5053020;28;20526;-76
2022/08/01 06:08:02;;;;;;;28.00;17.42;;;;;;;;;;5053036;28;20457;-76
2022/08/01 06:10:27;;;;;;;35.25;18.73;;;;;;;;;;5053564;28;20017;-76
2022/08/01 06:12:53;;;;;;;32.67;19.40;;;;;;;;;;5053260;28;20063;-76
2022/08/01 06:15:18;;;;;;;33.25;19.58;;;;;;;;;;5052102;28;20029;-76
2022/08/01 06:17:44;;;;;;;32.13;18.38;;;;;;;;;;5053015;28;20438;-76
2022/08/01 06:20:10;;;;;;;32.70;19.02;;;;;;;;;;5052989;28;20374;-76
2022/08/01 06:22:35;;;;;;;31.05;19.35;;;;;;;;;;5053181;28;20057;-76
2022/08/01 06:25:01;;;;;;;36.72;20.55;;;;;;;;;;5052863;28;20033;-76
2022/08/01 06:27:26;;;;;;;37.67;20.42;;;;;;;;;;5054290;28;20060;-76
2022/08/01 06:29:56;;;;;;;33.72;20.20;;;;;;;;;;5056906;28;20049;-76
2022/08/01 06:32:26;;;;;;;37.10;21.57;;;;;;;;;;5056844;28;20116;-76
2022/08/01 06:34:51;;;;;;;34.50;19.60;;;;;;;;;;5056796;28;20286;-76
2022/08/01 06:37:16;;;;;;;33.42;18.75;;;;;;;;;;5055177;28;20041;-76
2022/08/01 06:39:42;;;;;;;31.38;18.75;;;;;;;;;;5055174;28;20056;-76
2022/08/01 06:42:09;;;;;;;30.65;19.00;;;;;;;;;;5055088;28;20025;-76
2022/08/01 06:44:34;;;;;;;35.90;18.85;;;;;;;;;;5056370;28;20162;-76
2022/08/01 06:47:00;;;;;;;33.08;18.05;;;;;;;;;;5056256;28;20516;-76
2022/08/01 06:49:25;;;;;;;31.42;17.92;;;;;;;;;;5056254;28;20021;-76
2022/08/01 06:51:51;;;;;;;30.05;18.77;;;;;;;;;;5056790;28;20044;-76
2022/08/01 06:54:16;;;;;;;29.85;17.23;;;;;;;;;;5056455;28;20052;-76
2022/08/01 06:56:42;;;;;;;28.98;15.93;;;;;;;;;;5038252;28;20032;-76
2022/08/01 06:59:07;;;;;;;23.80;14.77;;;;;;;;;;5054805;28;20033;-76
2022/08/01 07:01:33;;;;;;;18.83;12.23;;;;;;;;;;5054720;28;20090;-76
2022/08/01 07:03:58;;;;;;;27.33;14.35;;;;;;;;;;5038109;28;20104;-76
2022/08/01 07:06:24;;;;;;;21.13;12.13;;;;;;;;;;5054633;28;20052;-76
2022/08/01 07:08:50;;;;;;;23.70;14.15;;;;;;;;;;5056180;28;20013;-76
2022/08/01 07:11:15;;;;;;;27.88;14.98;;;;;;;;;;5054963;28;20029;-76
2022/08/01 07:13:40;;;;;;;23.13;14.45;;;;;;;;;;5054569;28;20448;-76
2022/08/01 07:16:06;;;;;;;22.00;13.20;;;;;;;;;;5056037;28;20476;-77
2022/08/01 07:18:31;;;;;;;24.77;13.63;;;;;;;;;;5055738;28;20017;-76
2022/08/01 07:20:57;;;;;;;20.33;11.45;;;;;;;;;;5054351;28;20056;-76
2022/08/01 07:23:22;;;;;;;16.02;10.77;;;;;;;;;;5055051;28;20029;-76
2022/08/01 07:25:48;;;;;;;15.27;9.68;;;;;;;;;;5055419;28;20457;-76
2022/08/01 07:28:14;;;;;;;17.65;10.38;;;;;;;;;;5054354;28;20021;-76
2022/08/01 07:30:41;;;;;;;11.40;8.32;;;;;;;;;;5055488;28;20158;-76
2022/08/01 07:33:07;;;;;;;8.73;7.40;;;;;;;;;;5054824;28;20021;-76
2022/08/01 07:35:32;;;;;;;11.68;9.32;;;;;;;;;;5055656;28;20025;-76
2022/08/01 07:37:58;;;;;;;11.23;6.80;;;;;;;;;;5055082;28;20047;-76
2022/08/01 07:40:23;;;;;;;9.88;6.95;;;;;;;;;;5054558;28;20029;-76
2022/08/01 07:42:49;;;;;;;9.27;7.00;;;;;;;;;;5054114;28;20024;-76
2022/08/01 07:45:15;;;;;;;6.47;5.80;;;;;;;;;;5055420;28;20029;-76
2022/08/01 07:47:40;;;;;;;9.27;6.55;;;;;;;;;;5055756;28;20043;-76
2022/08/01 07:50:06;;;;;;;6.50;5.75;;;;;;;;;;5055085;28;20025;-76
2022/08/01 07:52:31;;;;;;;7.10;5.65;;;;;;;;;;5055008;28;20057;-76
2022/08/01 07:54:57;;;;;;;10.68;6.10;;;;;;;;;;5054964;28;20385;-76
2022/08/01 07:57:23;;;;;;;7.57;5.78;;;;;;;;;;5054067;28;20028;-76
2022/08/01 07:59:49;;;;;;;7.28;5.75;;;;;;;;;;5055148;28;20048;-76
2022/08/01 08:02:14;;;;;;;5.80;5.20;;;;;;;;;;5054279;28;20190;-76
2022/08/01 08:04:39;;;;;;;9.93;5.70;;;;;;;;;;5055032;28;20036;-76
2022/08/01 08:07:05;;;;;;;6.40;5.32;;;;;;;;;;5054738;28;20072;-77
2022/08/01 08:09:30;;;;;;;6.88;4.85;;;;;;;;;;5055005;28;20461;-76
2022/08/01 08:11:56;;;;;;;5.65;3.97;;;;;;;;;;5054632;28;20017;-76
2022/08/01 08:14:22;;;;;;;4.57;3.83;;;;;;;;;;5054610;28;20060;-76
2022/08/01 08:16:47;;;;;;;6.13;4.22;;;;;;;;;;5053295;28;20526;-76
2022/08/01 08:19:13;;;;;;;4.30;3.90;;;;;;;;;;5036715;28;20123;-76
2022/08/01 08:21:39;;;;;;;5.13;3.90;;;;;;;;;;5054512;28;20033;-76
2022/08/01 08:24:20;;;;;;;3.40;3.20;;;;;;;;;;5054969;28;20118;-76
2022/08/01 08:26:53;;;;;;;4.68;3.22;;;;;;;;;;5054587;28;20531;-76
2022/08/01 08:29:19;;;;;;;4.35;3.22;;;;;;;;;;5053091;28;20044;-76
2022/08/01 08:31:44;;;;;;;4.28;3.20;;;;;;;;;;5054343;28;20473;-76
2022/08/01 08:34:10;;;;;;;3.42;2.78;;;;;;;;;;5052996;28;20056;-76
2022/08/01 08:36:36;;;;;;;3.08;2.72;;;;;;;;;;5054262;28;20025;-76
2022/08/01 08:39:02;;;;;;;4.80;3.20;;;;;;;;;;5053504;28;20087;-76
2022/08/01 08:41:31;;;;;;;3.50;2.70;;;;;;;;;;5054137;28;20415;-76
2022/08/01 08:43:58;;;;;;;5.25;2.80;;;;;;;;;;5053194;28;20518;-76
2022/08/01 08:46:26;;;;;;;3.63;2.83;;;;;;;;;;5036178;28;20021;-76
2022/08/01 08:48:52;;;;;;;3.70;3.20;;;;;;;;;;5053149;28;20060;-76
2022/08/01 08:51:18;;;;;;;3.08;2.88;;;;;;;;;;5052656;28;20073;-76
2022/08/01 08:53:44;;;;;;;5.05;2.88;;;;;;;;;;5053964;28;20029;-76
2022/08/01 08:56:11;;;;;;;3.72;3.28;;;;;;;;;;5053024;28;20025;-76
2022/08/01 08:58:38;;;;;;;4.13;2.90;;;;;;;;;;5054138;28;20422;-76
2022/08/01 09:01:08;;;;;;;4.10;3.15;;;;;;;;;;5054102;28;20021;-76
2022/08/01 09:03:33;;;;;;;2.50;2.30;;;;;;;;;;5054085;28;20483;-76
2022/08/01 09:05:59;;;;;;;2.85;2.38;;;;;;;;;;5053967;28;20017;-76
2022/08/01 09:08:24;;;;;;;3.15;2.42;;;;;;;;;;5053760;28;20033;-76
2022/08/01 09:10:50;;;;;;;3.38;2.83;;;;;;;;;;5054181;28;20500;-76
2022/08/01 09:13:15;;;;;;;3.42;2.50;;;;;;;;;;5053879;28;20029;-76
2022/08/01 09:15:47;;;;;;;4.13;2.20;;;;;;;;;;5053932;28;20021;-76
2022/08/01 09:18:31;;;;;;;4.78;2.70;;;;;;;;;;5052706;28;20040;-76
2022/08/01 09:21:06;;;;;;;2.08;1.98;;;;;;;;;;5053771;28;20055;-76
2022/08/01 09:23:34;;;;;;;3.05;2.53;;;;;;;;;;5035708;28;20044;-76
2022/08/01 09:26:00;;;;;;;2.40;2.13;;;;;;;;;;5053983;28;20032;-76
2022/08/01 09:28:29;;;;;;;3.35;2.20;;;;;;;;;;5053748;28;20028;-76
2022/08/01 09:30:55;;;;;;;2.95;2.20;;;;;;;;;;5053483;28;20017;-76
2022/08/01 09:33:21;;;;;;;2.70;2.50;;;;;;;;;;5052591;28;20029;-76
2022/08/01 09:35:53;;;;;;;3.03;2.30;;;;;;;;;;5053454;28;20024;-76
2022/08/01 09:38:19;;;;;;;4.50;2.63;;;;;;;;;;5053634;28;20033;-76
2022/08/01 09:40:45;;;;;;;2.55;2.35;;;;;;;;;;5052438;28;20032;-76
2022/08/01 09:43:12;;;;;;;4.47;2.88;;;;;;;;;;5053612;28;20029;-76
2022/08/01 09:45:37;;;;;;;4.20;2.80;;;;;;;;;;5052098;28;20017;-76
2022/08/01 09:48:09;;;;;;;3.28;2.47;;;;;;;;;;5053573;28;20041;-76
2022/08/01 09:50:42;;;;;;;2.95;2.75;;;;;;;;;;5052048;28;20095;-76
2022/08/01 09:53:08;;;;;;;6.22;2.92;;;;;;;;;;5053228;28;20420;-76
2022/08/01 09:55:33;;;;;;;3.65;2.90;;;;;;;;;;5052004;28;20063;-76
2022/08/01 09:58:00;;;;;;;3.38;2.80;;;;;;;;;;5052043;28;20032;-76
2022/08/01 10:00:26;;;;;;;2.60;2.40;;;;;;;;;;5053483;28;20468;-76
2022/08/01 10:02:51;;;;;;;2.92;2.72;;;;;;;;;;5055338;28;20029;-76
2022/08/01 10:05:17;;;;;;;4.00;2.58;;;;;;;;;;5056970;28;20013;-76
2022/08/01 10:07:56;;;;;;;4.43;2.58;;;;;;;;;;5057066;28;20486;-76
2022/08/01 10:10:21;;;;;;;2.92;2.63;;;;;;;;;;5057517;28;20063;-76
2022/08/01 10:12:47;;;;;;;4.28;3.08;;;;;;;;;;5057207;28;20021;-76
2022/08/01 10:15:16;;;;;;;4.85;3.65;;;;;;;;;;5039102;28;20021;-76
2022/08/01 10:17:44;;;;;;;6.15;3.08;;;;;;;;;;5057195;28;20040;-76
2022/08/01 10:20:11;;;;;;;4.10;3.70;;;;;;;;;;5057143;28;20112;-76
2022/08/01 10:22:37;;;;;;;2.88;2.63;;;;;;;;;;5055618;28;20095;-76
2022/08/01 10:25:04;;;;;;;2.78;2.40;;;;;;;;;;5056723;28;20082;-76
2022/08/01 10:27:32;;;;;;;6.05;3.03;;;;;;;;;;5056070;28;20020;-76
2022/08/01 10:30:03;;;;;;;4.82;3.30;;;;;;;;;;5056626;28;20032;-76
2022/08/01 10:32:32;;;;;;;5.32;3.50;;;;;;;;;;5057118;28;20025;-76
2022/08/01 10:34:58;;;;;;;6.03;3.65;;;;;;;;;;5056558;28;20067;-76
2022/08/01 10:37:24;;;;;;;8.00;3.53;;;;;;;;;;5055223;28;20044;-76
2022/08/01 10:39:50;;;;;;;5.65;3.45;;;;;;;;;;5056770;28;20032;-76
2022/08/01 10:42:17;;;;;;;4.20;3.33;;;;;;;;;;5055109;28;20055;-76
2022/08/01 10:44:46;;;;;;;4.55;3.78;;;;;;;;;;5056404;28;20052;-76
2022/08/01 10:47:12;;;;;;;5.88;3.55;;;;;;;;;;5056763;28;20032;-76
2022/08/01 10:49:44;;;;;;;6.65;3.33;;;;;;;;;;5055661;28;20025;-76
2022/08/01 10:52:16;;;;;;;4.70;3.78;;;;;;;;;;5056120;28;20041;-76
2022/08/01 10:54:42;;;;;;;4.38;3.83;;;;;;;;;;5056444;28;20526;-76
2022/08/01 10:57:08;;;;;;;7.40;4.05;;;;;;;;;;5056367;28;20025;-76
2022/08/01 10:59:35;;;;;;;5.43;3.95;;;;;;;;;;5055203;28;20047;-76
2022/08/01 11:02:00;;;;;;;4.38;2.60;;;;;;;;;;5054881;28;20099;-76
2022/08/01 11:04:32;;;;;;;4.78;2.67;;;;;;;;;;5038184;28;20075;-76
2022/08/01 11:07:00;;;;;;;3.05;2.53;;;;;;;;;;5054569;28;20064;-76
2022/08/01 11:09:39;;;;;;;3.10;2.30;;;;;;;;;;5054668;28;20032;-76
2022/08/01 11:12:08;;;;;;;4.43;2.53;;;;;;;;;;5056124;28;20033;-76
2022/08/01 11:14:53;;;;;;;2.35;2.15;;;;;;;;;;5056060;28;20013;-76
2022/08/01 11:17:34;;;;;;;3.80;2.50;;;;;;;;;;5054419;28;20029;-76
2022/08/01 11:20:09;;;;;;;5.30;2.92;;;;;;;;;;5054407;28;20461;-76
2022/08/01 11:22:53;;;;;;;121.88;24.45;;;;;;;;;;5055658;28;20025;-76
2022/08/01 11:25:18;;;;;;;14.32;6.40;;;;;;;;;;5054909;28;20075;-76
2022/08/01 11:27:45;;;;;;;3.20;2.90;;;;;;;;;;5056122;28;20185;-76
2022/08/01 11:30:11;;;;;;;4.60;2.65;;;;;;;;;;5055504;28;20033;-76
2022/08/01 11:32:47;;;;;;;33.75;7.70;;;;;;;;;;5056028;28;20044;-76
2022/08/01 11:35:12;;;;;;;5.55;3.15;;;;;;;;;;5054141;28;20029;-76
2022/08/01 11:37:38;;;;;;;8.50;3.55;;;;;;;;;;5055591;28;20017;-76
2022/08/01 11:40:22;;;;;;;18.50;4.90;;;;;;;;;;5055589;28;20031;-76
2022/08/01 11:42:48;;;;;;;6.32;3.40;;;;;;;;;;5054398;28;20029;-76
2022/08/01 11:45:14;;;;;;;4.80;2.90;;;;;;;;;;5055176;28;20024;-76
2022/08/01 11:47:46;;;;;;;7.35;2.92;;;;;;;;;;5054288;28;20479;-76
2022/08/01 11:50:30;;;;;;;5.32;3.20;;;;;;;;;;5055451;28;20453;-76
2022/08/01 11:53:00;;;;;;;3.80;3.00;;;;;;;;;;5054913;28;20036;-76
2022/08/01 11:55:26;;;;;;;16.90;4.70;;;;;;;;;;5055612;28;20036;-76
2022/08/01 11:57:58;;;;;;;3.88;3.58;;;;;;;;;;5054124;28;20036;-76
2022/08/01 12:00:23;;;;;;;4.00;3.42;;;;;;;;;;5053688;28;20035;-76
2022/08/01 12:02:57;;;;;;;5.82;3.05;;;;;;;;;;5055482;28;20029;-76
2022/08/01 12:05:22;;;;;;;3.70;2.92;;;;;;;;;;5055015;28;20040;-76
2022/08/01 12:07:51;;;;;;;3.53;3.22;;;;;;;;;;5054811;28;20021;-76
2022/08/01 12:10:17;;;;;;;3.13;2.92;;;;;;;;;;5054734;28;20544;-76
2022/08/01 12:12:44;;;;;;;3.70;3.20;;;;;;;;;;5054980;28;20056;-76
2022/08/01 12:15:10;;;;;;;12.77;4.68;;;;;;;;;;5054620;28;20053;-76
2022/08/01 12:17:35;;;;;;;6.90;4.35;;;;;;;;;;5053472;28;20380;-76
2022/08/01 12:20:01;;;;;;;11.15;5.38;;;;;;;;;;5054843;28;20064;-76
2022/08/01 12:22:27;;;;;;;38.05;6.80;;;;;;;;;;5054823;28;20017;-76
2022/08/01 12:24:52;;;;;;;14.07;5.45;;;;;;;;;;5053980;28;20036;-76
2022/08/01 12:27:28;;;;;;;15.70;4.78;;;;;;;;;;5054662;28;20440;-76
2022/08/01 12:29:54;;;;;;;8.98;5.07;;;;;;;;;;5054635;28;20098;-76
2022/08/01 12:32:27;;;;;;;6.07;3.75;;;;;;;;;;5054339;28;20464;-77
2022/08/01 12:34:53;;;;;;;15.65;6.07;;;;;;;;;;5053052;28;20082;-76
2022/08/01 12:37:19;;;;;;;5.03;4.00;;;;;;;;;;5054555;28;20528;-76
2022/08/01 12:39:45;;;;;;;4.07;3.67;;;;;;;;;;5053590;28;20086;-76
2022/08/01 12:42:12;;;;;;;5.13;4.07;;;;;;;;;;5054473;28;20488;-76
2022/08/01 12:44:38;;;;;;;4.85;4.38;;;;;;;;;;5054615;28;20032;-76
2022/08/01 12:47:05;;;;;;;5.65;4.07;;;;;;;;;;5052838;28;20025;-76
2022/08/01 12:49:31;;;;;;;5.20;3.88;;;;;;;;;;5052774;28;20108;-76
2022/08/01 12:51:56;;;;;;;7.35;4.20;;;;;;;;;;5053767;28;20145;-76
2022/08/01 12:54:24;;;;;;;5.95;4.55;;;;;;;;;;5053919;28;20100;-76
2022/08/01 12:56:52;;;;;;;5.10;3.85;;;;;;;;;;5054187;28;20145;-76
2022/08/01 12:59:22;;;;;;;8.18;4.38;;;;;;;;;;5054092;28;20032;-76
2022/08/01 13:01:47;;;;;;;4.03;3.70;;;;;;;;;;5053815;28;20029;-76
2022/08/01 13:04:13;;;;;;;9.20;4.20;;;;;;;;;;5052680;28;20040;-76
2022/08/01 13:06:38;;;;;;;4.38;3.97;;;;;;;;;;5053691;28;20033;-76
2022/08/01 13:09:07;;;;;;;6.05;5.03;;;;;;;;;;5053998;28;20029;-76
2022/08/01 13:11:32;;;;;;;10.38;5.80;;;;;;;;;;5053727;28;20024;-76
2022/08/01 13:13:57;;;;;;;6.07;5.20;;;;;;;;;;5053676;28;20465;-76
2022/08/01 13:16:24;;;;;;;5.57;5.07;;;;;;;;;;5054180;28;20044;-76
2022/08/01 13:18:54;;;;;;;5.80;5.10;;;;;;;;;;5052921;28;20487;-76
2022/08/01 13:21:20;;;;;;;6.20;4.30;;;;;;;;;;5053860;28;20021;-76
2022/08/01 13:24:06;;;;;;;6.28;4.50;;;;;;;;;;5053767;28;20388;-76
2022/08/01 13:26:41;;;;;;;6.20;4.57;;;;;;;;;;5052173;28;20067;-76
2022/08/01 13:29:07;;;;;;;4.63;4.20;;;;;;;;;;5052166;28;20416;-76
2022/08/01 13:31:33;;;;;;;4.78;4.38;;;;;;;;;;5052190;28;20453;-76
2022/08/01 13:33:59;;;;;;;4.50;4.18;;;;;;;;;;5053693;28;20424;-76
2022/08/01 13:36:26;;;;;;;5.18;4.78;;;;;;;;;;5053403;28;20025;-76
2022/08/01 13:41:36;;;;;;;4.78;4.32;;;;;;;;;;5058047;28;20025;-76
2022/08/01 13:44:01;;;;;;;5.35;4.85;;;;;;;;;;5056138;28;20047;-76
2022/08/01 13:46:26;;;;;;;4.60;4.30;;;;;;;;;;5056095;28;20068;-76
2022/08/01 13:48:52;;;;;;;4.00;3.70;;;;;;;;;;5056250;28;20048;-78
2022/08/01 13:51:18;;;;;;;4.07;3.58;;;;;;;;;;5056746;28;20051;-78
2022/08/01 13:53:43;;;;;;;4.50;3.90;;;;;;;;;;5055574;28;20029;-77
2022/08/01 13:56:08;;;;;;;4.43;3.97;;;;;;;;;;5057185;28;20028;-78
2022/08/01 13:58:34;;;;;;;6.03;4.15;;;;;;;;;;5056879;28;20036;-78
2022/08/01 14:00:59;;;;;;;3.83;3.53;;;;;;;;;;5057105;28;20032;-77
2022/08/01 14:03:25;;;;;;;5.38;3.25;;;;;;;;;;5056848;28;20396;-77
2022/08/01 14:05:50;;;;;;;4.30;3.90;;;;;;;;;;5056800;28;20457;-77
2022/08/01 14:08:17;;;;;;;7.95;3.70;;;;;;;;;;5057066;28;20456;-77
2022/08/01 14:10:42;;;;;;;5.00;4.32;;;;;;;;;;5055734;28;20471;-77
2022/08/01 14:13:07;;;;;;;6.53;4.88;;;;;;;;;;5055841;28;20057;-77
2022/08/01 14:15:33;;;;;;;6.28;4.03;;;;;;;;;;5056974;28;20426;-78
2022/08/01 14:17:59;;;;;;;4.97;4.00;;;;;;;;;;5057297;28;20403;-77
2022/08/01 14:20:24;;;;;;;3.97;3.55;;;;;;;;;;5057188;28;20349;-77
2022/08/01 14:22:50;;;;;;;4.13;3.70;;;;;;;;;;5056735;28;20071;-77
2022/08/01 14:25:17;;;;;;;3.50;3.22;;;;;;;;;;5056156;28;20025;-77
2022/08/01 14:27:43;;;;;;;4.30;3.35;;;;;;;;;;5056131;28;20029;-77
2022/08/01 14:30:09;;;;;;;3.72;3.42;;;;;;;;;;5055851;28;20028;-77
2022/08/01 14:32:34;;;;;;;4.07;3.30;;;;;;;;;;5056794;28;20029;-77
2022/08/01 14:35:01;;;;;;;3.47;3.00;;;;;;;;;;5056638;28;20028;-77
2022/08/01 14:37:28;;;;;;;3.05;2.42;;;;;;;;;;5056481;28;20036;-77
2022/08/01 14:39:55;;;;;;;3.33;3.03;;;;;;;;;;5056495;28;20108;-78
2022/08/01 14:42:20;;;;;;;5.10;2.85;;;;;;;;;;5055484;28;20123;-78